createdAt,value
2018-01-15T00:00:49.523Z,4.00
2018-01-15T00:01:49.530Z,4.00
2018-01-15T00:02:49.539Z,4.00
2018-01-15T00:03:49.551Z,4.00
2018-01-15T00:04:49.560Z,4.00
2018-01-15T00:05:49.571Z,4.00
2018-01-15T00:06:49.578Z,4.00
2018-01-15T00:07:49.587Z,4.00
2018-01-15T00:08:49.599Z,4.00
2018-01-15T00:09:49.610Z,4.00
2018-01-15T00:10:49.618Z,4.00
2018-01-15T00:11:49.627Z,4.00
2018-01-15T00:12:49.638Z,4.00
2018-01-15T00:13:49.648Z,4.00
2018-01-15T00:14:49.657Z,4.00
2018-01-15T00:15:49.671Z,4.00
2018-01-15T00:16:49.677Z,4.00
2018-01-15T00:17:49.689Z,4.00
2018-01-15T00:18:49.701Z,4.00
2018-01-15T00:19:49.710Z,4.00
2018-01-15T00:20:49.719Z,4.00
2018-01-15T00:21:49.878Z,4.00
2018-01-15T00:22:49.735Z,4.00
2018-01-15T00:23:49.747Z,4.00
2018-01-15T00:24:49.778Z,4.00
2018-01-15T00:25:49.766Z,4.00
2018-01-15T00:26:49.777Z,4.00
2018-01-15T00:27:49.786Z,4.00
2018-01-15T00:28:49.796Z,4.00
2018-01-15T00:29:49.807Z,4.00
2018-01-15T00:30:49.817Z,4.00
2018-01-15T00:31:49.836Z,4.00
2018-01-15T00:32:49.848Z,4.00
2018-01-15T00:33:50.001Z,4.00
2018-01-15T00:34:49.858Z,4.00
2018-01-15T00:35:49.867Z,4.00
2018-01-15T00:36:49.879Z,4.00
2018-01-15T00:37:49.892Z,4.00
2018-01-15T00:38:49.899Z,4.00
2018-01-15T00:39:49.907Z,4.00
2018-01-15T00:40:49.916Z,4.00
2018-01-15T00:41:49.927Z,4.00
2018-01-15T00:42:49.934Z,4.00
2018-01-15T00:43:49.954Z,4.00
2018-01-15T00:44:50.763Z,4.00
2018-01-15T00:45:49.983Z,4.00
2018-01-15T00:46:49.976Z,4.00
2018-01-15T00:47:49.987Z,4.00
2018-01-15T00:48:49.995Z,4.00
2018-01-15T00:49:50.013Z,4.00
2018-01-15T00:50:50.015Z,4.00
2018-01-15T00:51:50.029Z,4.00
2018-01-15T00:52:50.044Z,4.00
2018-01-15T00:53:50.045Z,4.00
2018-01-15T00:54:50.059Z,4.00
2018-01-15T00:55:50.065Z,4.00
2018-01-15T00:56:50.076Z,4.00
2018-01-15T00:57:50.084Z,4.00
2018-01-15T00:58:50.246Z,4.00
2018-01-15T00:59:50.105Z,4.00
2018-01-15T01:00:50.140Z,4.00
2018-01-15T01:01:50.126Z,4.00
2018-01-15T01:02:50.135Z,4.00
2018-01-15T01:03:50.149Z,4.00
2018-01-15T01:04:50.154Z,4.00
2018-01-15T01:05:50.166Z,4.00
2018-01-15T01:06:50.176Z,4.00
2018-01-15T01:07:50.188Z,4.00
2018-01-15T01:08:50.200Z,4.00
2018-01-15T01:09:50.212Z,4.00
2018-01-15T01:10:50.309Z,4.00
2018-01-15T01:11:50.232Z,4.00
2018-01-15T01:12:50.241Z,4.00
2018-01-15T01:13:50.245Z,4.00
2018-01-15T01:14:50.512Z,4.00
2018-01-15T01:15:51.261Z,4.00
2018-01-15T01:16:50.276Z,4.00
2018-01-15T01:17:50.426Z,4.00
2018-01-15T01:19:50.860Z,4.00
2018-01-15T01:20:50.573Z,4.00
2018-01-15T01:21:50.327Z,4.00
2018-01-15T01:22:50.375Z,4.00
2018-01-15T01:23:50.355Z,4.00
2018-01-15T01:24:50.360Z,4.00
2018-01-15T01:25:50.370Z,4.00
2018-01-15T01:26:50.378Z,4.00
2018-01-15T01:27:50.392Z,4.00
2018-01-15T01:28:50.396Z,4.00
2018-01-15T01:29:50.410Z,4.00
2018-01-15T01:30:50.452Z,4.00
2018-01-15T01:31:50.439Z,4.00
2018-01-15T01:32:50.437Z,4.00
2018-01-15T01:33:50.449Z,4.00
2018-01-15T01:34:50.457Z,4.00
2018-01-15T01:35:50.538Z,4.00
2018-01-15T01:36:50.478Z,4.00
2018-01-15T01:37:50.500Z,4.00
2018-01-15T01:38:50.498Z,4.00
2018-01-15T01:39:50.511Z,4.00
2018-01-15T01:40:50.521Z,4.00
2018-01-15T01:41:50.531Z,4.00
2018-01-15T01:42:50.540Z,4.00
2018-01-15T01:43:50.548Z,4.00
2018-01-15T01:44:50.709Z,4.00
2018-01-15T01:45:50.570Z,4.00
2018-01-15T01:46:50.581Z,4.00
2018-01-15T01:47:50.590Z,4.00
2018-01-15T01:48:50.599Z,4.00
2018-01-15T01:49:50.615Z,4.00
2018-01-15T01:50:50.619Z,4.00
2018-01-15T01:51:50.630Z,4.00
2018-01-15T01:52:50.793Z,4.00
2018-01-15T01:53:50.665Z,4.00
2018-01-15T01:54:50.660Z,4.00
2018-01-15T01:55:50.671Z,4.00
2018-01-15T01:56:50.686Z,4.00
2018-01-15T01:57:50.692Z,4.00
2018-01-15T01:58:50.705Z,4.00
2018-01-15T01:59:50.711Z,4.00
2018-01-15T02:00:50.722Z,4.00
2018-01-15T02:01:50.733Z,4.00
2018-01-15T02:02:50.746Z,4.00
2018-01-15T02:03:50.757Z,4.00
2018-01-15T02:04:50.765Z,4.00
2018-01-15T02:05:50.773Z,4.00
2018-01-15T02:06:50.783Z,4.00
2018-01-15T02:07:50.843Z,4.00
2018-01-15T02:08:50.803Z,4.00
2018-01-15T02:09:50.823Z,4.00
2018-01-15T02:10:50.824Z,4.00
2018-01-15T02:11:50.832Z,4.00
2018-01-15T02:12:50.847Z,4.00
2018-01-15T02:13:50.855Z,4.00
2018-01-15T02:14:50.865Z,4.00
2018-01-15T02:15:50.883Z,4.00
2018-01-15T02:16:50.898Z,4.00
2018-01-15T02:17:50.903Z,4.00
2018-01-15T02:18:50.905Z,4.00
2018-01-15T02:19:50.919Z,4.00
2018-01-15T02:20:50.925Z,4.00
2018-01-15T02:21:50.968Z,4.00
2018-01-15T02:22:50.945Z,4.00
2018-01-15T02:23:50.959Z,4.00
2018-01-15T02:24:50.966Z,4.00
2018-01-15T02:25:50.975Z,4.00
2018-01-15T02:26:51.038Z,4.00
2018-01-15T02:27:51.004Z,4.00
2018-01-15T02:28:51.009Z,4.00
2018-01-15T02:29:51.021Z,4.00
2018-01-15T02:30:51.027Z,4.00
2018-01-15T02:31:51.038Z,4.00
2018-01-15T02:32:51.048Z,4.00
2018-01-15T02:33:51.066Z,4.00
2018-01-15T02:35:51.078Z,4.00
2018-01-15T02:36:51.092Z,4.00
2018-01-15T02:37:51.100Z,4.00
2018-01-15T02:38:51.109Z,4.00
2018-01-15T02:39:51.119Z,4.00
2018-01-15T02:40:51.130Z,4.00
2018-01-15T02:41:51.140Z,4.00
2018-01-15T02:42:51.152Z,4.00
2018-01-15T02:43:51.411Z,4.00
2018-01-15T02:44:51.170Z,4.00
2018-01-15T02:45:51.182Z,4.00
2018-01-15T02:46:51.191Z,4.00
2018-01-15T02:47:51.200Z,4.00
2018-01-15T02:48:51.212Z,4.00
2018-01-15T02:49:51.222Z,4.00
2018-01-15T02:50:51.238Z,4.00
2018-01-15T02:51:51.242Z,4.00
2018-01-15T02:52:51.258Z,4.00
2018-01-15T02:53:51.271Z,4.00
2018-01-15T02:54:51.275Z,4.00
2018-01-15T02:55:51.285Z,4.00
2018-01-15T02:56:51.296Z,4.00
2018-01-15T02:57:51.311Z,4.00
2018-01-15T02:58:51.316Z,4.00
2018-01-15T02:59:51.475Z,4.00
2018-01-15T03:00:51.340Z,4.00
2018-01-15T03:01:51.349Z,4.00
2018-01-15T03:02:51.354Z,4.00
2018-01-15T03:03:51.362Z,4.00
2018-01-15T03:04:51.379Z,4.00
2018-01-15T03:05:51.386Z,4.00
2018-01-15T03:06:51.397Z,4.00
2018-01-15T03:07:51.407Z,4.00
2018-01-15T03:08:51.419Z,4.00
2018-01-15T03:09:51.428Z,4.00
2018-01-15T03:10:51.435Z,4.00
2018-01-15T03:11:51.697Z,4.00
2018-01-15T03:12:51.460Z,4.00
2018-01-15T03:13:51.621Z,4.00
2018-01-15T03:14:51.481Z,4.00
2018-01-15T03:15:51.490Z,4.00
2018-01-15T03:16:51.502Z,4.00
2018-01-15T03:17:51.512Z,4.00
2018-01-15T03:18:51.519Z,4.00
2018-01-15T03:19:51.781Z,4.00
2018-01-15T03:20:51.544Z,4.00
2018-01-15T03:21:51.553Z,4.00
2018-01-15T03:22:51.570Z,4.00
2018-01-15T03:23:51.572Z,4.00
2018-01-15T03:24:51.584Z,4.00
2018-01-15T03:25:51.596Z,4.00
2018-01-15T03:26:51.608Z,4.00
2018-01-15T03:27:51.766Z,4.00
2018-01-15T03:28:51.626Z,4.00
2018-01-15T03:29:51.637Z,4.00
2018-01-15T03:30:51.648Z,4.00
2018-01-15T03:31:51.659Z,4.00
2018-01-15T03:32:51.668Z,4.00
2018-01-15T03:33:51.676Z,4.00
2018-01-15T03:34:51.684Z,4.00
2018-01-15T03:35:51.697Z,4.00
2018-01-15T03:36:51.707Z,4.00
2018-01-15T03:37:51.867Z,4.00
2018-01-15T03:38:51.728Z,4.00
2018-01-15T03:39:51.739Z,4.00
2018-01-15T03:40:51.748Z,4.00
2018-01-15T03:41:51.763Z,4.00
2018-01-15T03:42:51.767Z,4.00
2018-01-15T03:43:51.782Z,4.00
2018-01-15T03:44:51.789Z,4.00
2018-01-15T03:45:51.801Z,4.00
2018-01-15T03:46:51.808Z,4.00
2018-01-15T03:47:51.820Z,4.00
2018-01-15T03:48:51.981Z,4.00
2018-01-15T03:49:51.848Z,4.00
2018-01-15T03:50:51.854Z,4.00
2018-01-15T03:51:51.862Z,4.00
2018-01-15T03:52:51.873Z,4.00
2018-01-15T03:53:51.890Z,4.00
2018-01-15T03:54:51.894Z,4.00
2018-01-15T03:55:51.904Z,4.00
2018-01-15T03:56:51.912Z,4.00
2018-01-15T03:57:51.926Z,4.00
2018-01-15T03:58:51.934Z,4.00
2018-01-15T03:59:51.946Z,4.00
2018-01-15T04:00:51.955Z,4.00
2018-01-15T04:01:51.965Z,4.00
2018-01-15T04:02:51.973Z,4.00
2018-01-15T04:03:51.985Z,4.00
2018-01-15T04:04:51.993Z,4.00
2018-01-15T04:05:52.007Z,4.00
2018-01-15T04:06:52.017Z,4.00
2018-01-15T04:07:52.025Z,4.00
2018-01-15T04:08:52.035Z,4.00
2018-01-15T04:09:52.370Z,4.00
2018-01-15T04:10:52.056Z,4.00
2018-01-15T04:11:52.068Z,4.00
2018-01-15T04:12:52.076Z,4.00
2018-01-15T04:13:52.091Z,4.00
2018-01-15T04:14:52.097Z,4.00
2018-01-15T04:15:52.106Z,4.00
2018-01-15T04:16:52.117Z,4.00
2018-01-15T04:17:52.127Z,4.00
2018-01-15T04:18:52.137Z,4.00
2018-01-15T04:19:52.149Z,4.00
2018-01-15T04:20:52.163Z,4.00
2018-01-15T04:21:52.171Z,4.00
2018-01-15T04:22:52.178Z,4.00
2018-01-15T04:23:52.194Z,4.00
2018-01-15T04:24:52.200Z,4.00
2018-01-15T04:25:52.211Z,4.00
2018-01-15T04:26:52.221Z,4.00
2018-01-15T04:27:52.228Z,4.00
2018-01-15T04:28:52.239Z,4.00
2018-01-15T04:29:52.251Z,4.00
2018-01-15T04:30:52.259Z,4.00
2018-01-15T04:31:52.270Z,4.00
2018-01-15T04:32:52.282Z,4.00
2018-01-15T04:33:52.292Z,4.00
2018-01-15T04:34:52.451Z,4.00
2018-01-15T04:35:52.313Z,4.00
2018-01-15T04:36:52.321Z,4.00
2018-01-15T04:37:52.333Z,4.00
2018-01-15T04:38:52.342Z,4.00
2018-01-15T04:39:52.355Z,4.00
2018-01-15T04:40:52.366Z,4.00
2018-01-15T04:41:52.374Z,4.00
2018-01-15T04:42:52.391Z,4.00
2018-01-15T04:43:52.395Z,4.00
2018-01-15T04:44:52.403Z,4.00
2018-01-15T04:45:52.416Z,4.00
2018-01-15T04:46:52.428Z,4.00
2018-01-15T04:47:52.435Z,4.00
2018-01-15T04:48:52.445Z,4.00
2018-01-15T04:49:52.466Z,4.00
2018-01-15T04:50:52.467Z,4.00
2018-01-15T04:51:52.490Z,4.00
2018-01-15T04:52:52.486Z,4.00
2018-01-15T04:53:52.497Z,4.00
2018-01-15T04:54:52.505Z,4.00
2018-01-15T04:55:52.519Z,4.00
2018-01-15T04:56:52.529Z,4.00
2018-01-15T04:57:52.538Z,4.00
2018-01-15T04:58:52.548Z,4.00
2018-01-15T04:59:52.559Z,4.00
2018-01-15T05:00:52.567Z,4.00
2018-01-15T05:01:52.581Z,4.00
2018-01-15T05:02:52.590Z,4.00
2018-01-15T05:03:52.600Z,4.00
2018-01-15T05:04:52.611Z,4.00
2018-01-15T05:05:52.621Z,4.00
2018-01-15T05:06:52.631Z,4.00
2018-01-15T05:07:52.642Z,4.00
2018-01-15T05:08:52.702Z,4.00
2018-01-15T05:09:52.662Z,4.00
2018-01-15T05:10:52.673Z,4.00
2018-01-15T05:11:52.682Z,4.00
2018-01-15T05:12:52.693Z,4.00
2018-01-15T05:13:52.705Z,4.00
2018-01-15T05:14:52.713Z,4.00
2018-01-15T05:15:52.726Z,4.00
2018-01-15T05:16:52.742Z,4.00
2018-01-15T05:17:52.744Z,4.00
2018-01-15T05:18:52.759Z,4.00
2018-01-15T05:19:52.764Z,4.00
2018-01-15T05:20:52.777Z,4.00
2018-01-15T05:21:52.788Z,4.00
2018-01-15T05:22:52.798Z,4.00
2018-01-15T05:23:52.809Z,4.00
2018-01-15T05:24:52.821Z,4.00
2018-01-15T05:25:52.835Z,4.00
2018-01-15T05:26:52.838Z,4.00
2018-01-15T05:27:52.848Z,4.00
2018-01-15T05:28:52.861Z,4.00
2018-01-15T05:29:52.872Z,4.00
2018-01-15T05:30:52.884Z,4.00
2018-01-15T05:31:52.948Z,4.00
2018-01-15T05:32:52.902Z,4.00
2018-01-15T05:33:52.916Z,4.00
2018-01-15T05:34:52.924Z,4.00
2018-01-15T05:35:52.933Z,4.00
2018-01-15T05:36:52.947Z,4.00
2018-01-15T05:37:52.955Z,4.00
2018-01-15T05:38:52.972Z,4.00
2018-01-15T05:39:52.981Z,4.00
2018-01-15T05:40:52.989Z,4.00
2018-01-15T05:41:52.997Z,4.00
2018-01-15T05:42:53.008Z,4.00
2018-01-15T05:43:53.018Z,4.00
2018-01-15T05:44:53.022Z,4.00
2018-01-15T05:45:53.035Z,4.00
2018-01-15T05:46:53.044Z,4.00
2018-01-15T05:47:53.085Z,4.00
2018-01-15T05:48:53.063Z,4.00
2018-01-15T05:49:53.075Z,4.00
2018-01-15T05:50:53.085Z,4.00
2018-01-15T05:51:53.098Z,4.00
2018-01-15T05:52:53.105Z,4.00
2018-01-15T05:53:53.266Z,4.00
2018-01-15T05:54:53.129Z,4.00
2018-01-15T05:55:53.137Z,4.00
2018-01-15T05:56:53.154Z,4.00
2018-01-15T05:57:53.159Z,4.00
2018-01-15T05:58:53.167Z,4.00
2018-01-15T05:59:53.195Z,4.00
2018-01-15T06:00:53.188Z,4.00
2018-01-15T06:01:53.201Z,4.00
2018-01-15T06:02:53.211Z,4.00
2018-01-15T06:03:53.399Z,4.00
2018-01-15T06:04:53.232Z,4.00
2018-01-15T06:05:53.246Z,4.00
2018-01-15T06:06:53.253Z,4.00
2018-01-15T06:07:53.264Z,4.00
2018-01-15T06:08:53.285Z,4.00
2018-01-15T06:09:53.286Z,4.00
2018-01-15T06:10:53.297Z,4.00
2018-01-15T06:11:53.310Z,8.00
2018-01-15T06:12:53.317Z,8.00
2018-01-15T06:13:53.328Z,8.00
2018-01-15T06:14:53.341Z,8.00
2018-01-15T06:15:53.357Z,8.00
2018-01-15T06:16:53.361Z,8.00
2018-01-15T06:17:53.383Z,4.00
2018-01-15T06:18:53.385Z,4.00
2018-01-15T06:19:53.395Z,8.00
2018-01-15T06:20:53.404Z,4.00
2018-01-15T06:21:53.424Z,4.00
2018-01-15T06:22:53.425Z,4.00
2018-01-15T06:23:53.437Z,4.00
2018-01-15T06:24:53.463Z,4.00
2018-01-15T06:25:53.468Z,4.00
2018-01-15T06:26:53.477Z,4.00
2018-01-15T06:27:53.478Z,4.00
2018-01-15T06:28:53.492Z,4.00
2018-01-15T06:29:53.517Z,4.00
2018-01-15T06:30:53.510Z,4.00
2018-01-15T06:31:53.521Z,4.00
2018-01-15T06:32:53.538Z,4.00
2018-01-15T06:33:53.543Z,4.00
2018-01-15T06:34:53.554Z,4.00
2018-01-15T06:35:53.570Z,4.00
2018-01-15T06:36:53.577Z,4.00
2018-01-15T06:37:53.588Z,4.00
2018-01-15T06:38:53.602Z,4.00
2018-01-15T06:39:53.612Z,4.00
2018-01-15T06:40:53.626Z,4.00
2018-01-15T06:41:53.784Z,4.00
2018-01-15T06:42:53.641Z,4.00
2018-01-15T06:43:53.655Z,4.00
2018-01-15T06:44:53.663Z,4.00
2018-01-15T06:45:53.678Z,4.00
2018-01-15T06:46:53.686Z,4.00
2018-01-15T06:47:53.696Z,4.00
2018-01-15T06:48:53.856Z,4.00
2018-01-15T06:49:53.869Z,4.00
2018-01-15T06:50:53.728Z,4.00
2018-01-15T06:51:53.744Z,4.00
2018-01-15T06:52:53.752Z,4.00
2018-01-15T06:53:53.770Z,4.00
2018-01-15T06:54:53.777Z,4.00
2018-01-15T06:55:53.783Z,4.00
2018-01-15T06:56:53.796Z,4.00
2018-01-15T06:57:53.811Z,4.00
2018-01-15T06:58:53.817Z,4.00
2018-01-15T06:59:53.828Z,8.00
2018-01-15T07:00:53.838Z,8.00
2018-01-15T07:01:53.856Z,4.00
2018-01-15T07:02:53.884Z,8.00
2018-01-15T07:03:53.871Z,8.00
2018-01-15T07:04:53.881Z,4.00
2018-01-15T07:05:53.894Z,8.00
2018-01-15T07:06:53.909Z,8.00
2018-01-15T07:07:53.921Z,8.00
2018-01-15T07:08:53.952Z,8.00
2018-01-15T07:09:53.938Z,12.00
2018-01-15T07:10:53.947Z,12.00
2018-01-15T07:11:53.959Z,12.00
2018-01-15T07:12:54.070Z,12.00
2018-01-15T07:13:53.982Z,12.00
2018-01-15T07:14:53.991Z,16.00
2018-01-15T07:15:54.007Z,16.00
2018-01-15T07:16:54.018Z,20.00
2018-01-15T07:17:54.031Z,24.00
2018-01-15T07:18:54.036Z,24.00
2018-01-15T07:19:54.049Z,28.00
2018-01-15T07:20:54.208Z,32.00
2018-01-15T07:21:54.068Z,36.00
2018-01-15T07:22:54.080Z,40.00
2018-01-15T07:23:54.094Z,44.00
2018-01-15T07:24:54.103Z,52.00
2018-01-15T07:25:54.113Z,56.00
2018-01-15T07:26:54.125Z,60.00
2018-01-15T07:27:54.145Z,68.00
2018-01-15T07:28:54.146Z,76.00
2018-01-15T07:29:54.157Z,84.00
2018-01-15T07:30:54.172Z,88.00
2018-01-15T07:31:54.179Z,88.00
2018-01-15T07:32:54.189Z,96.00
2018-01-15T07:33:54.202Z,100.00
2018-01-15T07:34:54.210Z,116.00
2018-01-15T07:35:54.223Z,124.00
2018-01-15T07:36:54.234Z,136.00
2018-01-15T07:37:54.246Z,156.00
2018-01-15T07:38:54.266Z,172.00
2018-01-15T07:39:54.273Z,184.00
2018-01-15T07:40:54.279Z,192.00
2018-01-15T07:41:54.297Z,200.00
2018-01-15T07:42:54.301Z,200.00
2018-01-15T07:43:54.312Z,208.00
2018-01-15T07:44:54.322Z,224.00
2018-01-15T07:45:54.334Z,228.00
2018-01-15T07:46:54.346Z,240.00
2018-01-15T07:47:54.355Z,252.00
2018-01-15T07:48:54.367Z,268.00
2018-01-15T07:49:54.382Z,268.00
2018-01-15T07:50:54.400Z,272.00
2018-01-15T07:51:54.401Z,288.00
2018-01-15T07:52:54.412Z,300.00
2018-01-15T07:53:54.675Z,296.00
2018-01-15T07:54:54.440Z,296.00
2018-01-15T07:55:54.447Z,308.00
2018-01-15T07:56:54.463Z,320.00
2018-01-15T07:57:54.473Z,332.00
2018-01-15T07:58:54.504Z,344.00
2018-01-15T07:59:54.489Z,348.00
2018-01-15T08:00:54.500Z,352.00
2018-01-15T08:01:54.515Z,356.00
2018-01-15T08:02:54.522Z,356.00
2018-01-15T08:03:54.535Z,356.00
2018-01-15T08:04:54.546Z,356.00
2018-01-15T08:05:54.559Z,356.00
2018-01-15T08:06:54.583Z,360.00
2018-01-15T08:07:54.584Z,372.00
2018-01-15T08:08:54.590Z,392.00
2018-01-15T08:09:54.767Z,412.00
2018-01-15T08:10:54.611Z,424.00
2018-01-15T08:11:54.621Z,432.00
2018-01-15T08:12:54.633Z,444.00
2018-01-15T08:13:54.677Z,456.00
2018-01-15T08:14:54.655Z,464.00
2018-01-15T08:15:54.667Z,472.00
2018-01-15T08:16:54.681Z,480.00
2018-01-15T08:17:54.690Z,484.00
2018-01-15T08:18:54.988Z,488.00
2018-01-15T08:19:54.713Z,492.00
2018-01-15T08:20:54.725Z,508.00
2018-01-15T08:21:55.021Z,516.00
2018-01-15T08:22:54.747Z,528.00
2018-01-15T08:23:54.756Z,540.00
2018-01-15T08:24:54.768Z,548.00
2018-01-15T08:25:54.784Z,556.00
2018-01-15T08:26:54.794Z,564.00
2018-01-15T08:27:54.802Z,576.00
2018-01-15T08:28:54.816Z,580.00
2018-01-15T08:29:54.826Z,588.00
2018-01-15T08:31:54.890Z,604.00
2018-01-15T08:32:54.889Z,612.00
2018-01-15T08:33:54.882Z,624.00
2018-01-15T08:34:54.883Z,636.00
2018-01-15T08:35:54.894Z,664.00
2018-01-15T08:36:54.910Z,688.00
2018-01-15T08:37:54.918Z,696.00
2018-01-15T08:38:54.931Z,680.00
2018-01-15T08:39:54.943Z,648.00
2018-01-15T08:40:54.964Z,624.00
2018-01-15T08:41:54.975Z,596.00
2018-01-15T08:42:54.976Z,572.00
2018-01-15T08:43:54.989Z,572.00
2018-01-15T08:44:55.097Z,608.00
2018-01-15T08:45:55.013Z,628.00
2018-01-15T08:46:55.017Z,668.00
2018-01-15T08:47:55.032Z,696.00
2018-01-15T08:48:55.058Z,712.00
2018-01-15T08:49:55.054Z,712.00
2018-01-15T08:50:55.066Z,704.00
2018-01-15T08:51:55.080Z,680.00
2018-01-15T08:52:55.088Z,652.00
2018-01-15T08:53:55.101Z,636.00
2018-01-15T08:54:55.263Z,652.00
2018-01-15T08:55:55.122Z,672.00
2018-01-15T08:56:55.135Z,656.00
2018-01-15T08:57:55.270Z,688.00
2018-01-15T08:58:55.166Z,700.00
2018-01-15T08:59:55.176Z,732.00
2018-01-15T09:00:55.213Z,752.00
2018-01-15T09:01:55.191Z,780.00
2018-01-15T09:02:55.204Z,784.00
2018-01-15T09:03:55.216Z,792.00
2018-01-15T09:04:55.245Z,828.00
2018-01-15T09:05:55.270Z,844.00
2018-01-15T09:06:55.243Z,828.00
2018-01-15T09:07:55.323Z,840.00
2018-01-15T09:08:55.269Z,896.00
2018-01-15T09:09:55.455Z,896.00
2018-01-15T09:10:55.304Z,896.00
2018-01-15T09:11:55.309Z,908.00
2018-01-15T09:12:55.465Z,924.00
2018-01-15T09:13:55.328Z,964.00
2018-01-15T09:14:55.403Z,976.00
2018-01-15T09:15:55.350Z,956.00
2018-01-15T09:16:55.512Z,940.00
2018-01-15T09:17:55.385Z,976.00
2018-01-15T09:18:55.388Z,1008.00
2018-01-15T09:19:55.397Z,972.00
2018-01-15T09:20:55.559Z,968.00
2018-01-15T09:21:55.481Z,1028.00
2018-01-15T09:22:55.432Z,1120.00
2018-01-15T09:23:55.456Z,1220.00
2018-01-15T09:24:55.459Z,1424.00
2018-01-15T09:25:55.467Z,1484.00
2018-01-15T09:26:55.482Z,1528.00
2018-01-15T09:27:55.489Z,1548.00
2018-01-15T09:28:55.503Z,1564.00
2018-01-15T09:29:55.515Z,1576.00
2018-01-15T09:30:55.531Z,1576.00
2018-01-15T09:31:55.541Z,1580.00
2018-01-15T09:32:55.550Z,1584.00
2018-01-15T09:33:55.578Z,1584.00
2018-01-15T09:34:55.590Z,1584.00
2018-01-15T09:35:55.602Z,1572.00
2018-01-15T09:36:55.597Z,1564.00
2018-01-15T09:37:55.608Z,1548.00
2018-01-15T09:38:55.621Z,1548.00
2018-01-15T09:40:55.646Z,1548.00
2018-01-15T09:41:55.663Z,1548.00
2018-01-15T09:42:55.669Z,1536.00
2018-01-15T09:43:55.696Z,1532.00
2018-01-15T09:44:55.702Z,1536.00
2018-01-15T09:45:55.706Z,1536.00
2018-01-15T09:46:55.722Z,1528.00
2018-01-15T09:47:55.730Z,1544.00
2018-01-15T09:48:55.754Z,1560.00
2018-01-15T09:49:55.756Z,1580.00
2018-01-15T09:50:55.803Z,1608.00
2018-01-15T09:51:55.787Z,1640.00
2018-01-15T09:52:55.792Z,1672.00
2018-01-15T09:53:55.803Z,1724.00
2018-01-15T09:54:55.816Z,1768.00
2018-01-15T09:55:55.831Z,1816.00
2018-01-15T09:56:55.840Z,1868.00
2018-01-15T09:57:55.850Z,1920.00
2018-01-15T09:58:55.866Z,1984.00
2018-01-15T09:59:55.893Z,2048.00
2018-01-15T10:00:55.889Z,2116.00
2018-01-15T10:01:55.902Z,2184.00
2018-01-15T10:02:55.916Z,2232.00
2018-01-15T10:03:55.925Z,2276.00
2018-01-15T10:04:55.936Z,2324.00
2018-01-15T10:05:55.951Z,2344.00
2018-01-15T10:06:55.971Z,2352.00
2018-01-15T10:07:55.973Z,2348.00
2018-01-15T10:08:55.987Z,2328.00
2018-01-15T10:09:56.033Z,2280.00
2018-01-15T10:10:56.126Z,2208.00
2018-01-15T10:11:56.031Z,2108.00
2018-01-15T10:12:56.038Z,2012.00
2018-01-15T10:13:56.049Z,1916.00
2018-01-15T10:14:56.066Z,1836.00
2018-01-15T10:15:56.083Z,1768.00
2018-01-15T10:16:56.086Z,1712.00
2018-01-15T10:17:56.117Z,1664.00
2018-01-15T10:18:56.138Z,1632.00
2018-01-15T10:19:56.121Z,1608.00
2018-01-15T10:20:56.135Z,1600.00
2018-01-15T10:21:56.151Z,1600.00
2018-01-15T10:22:56.161Z,1616.00
2018-01-15T10:23:56.184Z,1640.00
2018-01-15T10:24:56.183Z,1660.00
2018-01-15T10:25:56.197Z,1684.00
2018-01-15T10:26:56.212Z,1704.00
2018-01-15T10:27:56.222Z,1728.00
2018-01-15T10:28:56.242Z,1744.00
2018-01-15T10:29:56.248Z,1748.00
2018-01-15T10:30:56.262Z,1744.00
2018-01-15T10:31:56.277Z,1744.00
2018-01-15T10:32:56.283Z,1740.00
2018-01-15T10:33:56.298Z,1752.00
2018-01-15T10:34:56.309Z,1776.00
2018-01-15T10:35:56.320Z,1812.00
2018-01-15T10:36:56.399Z,1836.00
2018-01-15T10:37:56.353Z,1844.00
2018-01-15T10:38:56.554Z,1832.00
2018-01-15T10:39:56.379Z,1808.00
2018-01-15T10:40:56.388Z,1768.00
2018-01-15T10:41:56.403Z,1732.00
2018-01-15T10:42:56.409Z,1692.00
2018-01-15T10:43:56.829Z,1652.00
2018-01-15T10:44:56.446Z,1604.00
2018-01-15T10:45:56.451Z,1560.00
2018-01-15T10:46:56.458Z,1528.00
2018-01-15T10:47:56.476Z,1496.00
2018-01-15T10:48:56.490Z,1484.00
2018-01-15T10:49:56.498Z,1496.00
2018-01-15T10:50:56.510Z,1520.00
2018-01-15T10:51:56.523Z,1564.00
2018-01-15T10:52:56.535Z,1612.00
2018-01-15T10:53:56.550Z,1660.00
2018-01-15T10:54:56.558Z,1704.00
2018-01-15T10:55:56.571Z,1752.00
2018-01-15T10:56:56.583Z,1792.00
2018-01-15T10:57:56.598Z,1820.00
2018-01-15T10:58:56.611Z,1820.00
2018-01-15T10:59:56.626Z,1808.00
2018-01-15T11:00:56.633Z,1796.00
2018-01-15T11:01:56.646Z,1788.00
2018-01-15T11:02:56.816Z,1784.00
2018-01-15T11:03:56.671Z,1792.00
2018-01-15T11:04:56.683Z,1804.00
2018-01-15T11:05:56.699Z,1832.00
2018-01-15T11:06:56.708Z,1860.00
2018-01-15T11:07:56.721Z,1884.00
2018-01-15T11:08:56.734Z,1908.00
2018-01-15T11:09:56.747Z,1932.00
2018-01-15T11:10:56.760Z,1976.00
2018-01-15T11:11:56.780Z,2028.00
2018-01-15T11:12:56.816Z,2088.00
2018-01-15T11:13:56.965Z,2156.00
2018-01-15T11:14:56.810Z,2204.00
2018-01-15T11:15:56.854Z,2248.00
2018-01-15T11:16:56.840Z,2308.00
2018-01-15T11:17:56.853Z,2368.00
2018-01-15T11:18:56.861Z,2452.00
2018-01-15T11:19:56.893Z,2548.00
2018-01-15T11:20:56.886Z,2644.00
2018-01-15T11:21:57.051Z,2736.00
2018-01-15T11:22:56.917Z,2816.00
2018-01-15T11:23:56.932Z,2872.00
2018-01-15T11:24:56.941Z,2888.00
2018-01-15T11:25:56.953Z,2864.00
2018-01-15T11:26:56.964Z,2800.00
2018-01-15T11:27:56.979Z,2708.00
2018-01-15T11:28:56.992Z,2576.00
2018-01-15T11:29:57.004Z,2476.00
2018-01-15T11:30:57.017Z,2324.00
2018-01-15T11:31:57.028Z,2200.00
2018-01-15T11:32:57.046Z,2108.00
2018-01-15T11:33:57.053Z,2012.00
2018-01-15T11:34:57.069Z,1924.00
2018-01-15T11:35:57.081Z,1844.00
2018-01-15T11:36:57.095Z,1760.00
2018-01-15T11:37:57.111Z,1696.00
2018-01-15T11:38:57.120Z,1640.00
2018-01-15T11:39:57.133Z,1592.00
2018-01-15T11:40:57.147Z,1568.00
2018-01-15T11:41:57.161Z,1568.00
2018-01-15T11:42:57.172Z,1600.00
2018-01-15T11:43:57.184Z,1640.00
2018-01-15T11:44:57.197Z,1680.00
2018-01-15T11:45:57.209Z,1708.00
2018-01-15T11:46:57.384Z,1720.00
2018-01-15T11:47:57.242Z,1732.00
2018-01-15T11:48:57.254Z,1736.00
2018-01-15T11:49:57.269Z,1740.00
2018-01-15T11:50:57.276Z,1772.00
2018-01-15T11:51:57.288Z,1836.00
2018-01-15T11:52:57.454Z,1932.00
2018-01-15T11:53:57.315Z,2060.00
2018-01-15T11:54:57.331Z,2176.00
2018-01-15T11:55:57.343Z,2260.00
2018-01-15T11:56:57.355Z,2296.00
2018-01-15T11:57:57.384Z,2288.00
2018-01-15T11:58:57.385Z,2252.00
2018-01-15T11:59:57.498Z,2212.00
2018-01-15T12:00:57.421Z,2188.00
2018-01-15T12:01:57.425Z,2156.00
2018-01-15T12:02:57.530Z,2108.00
2018-01-15T12:03:57.448Z,2048.00
2018-01-15T12:05:57.865Z,1872.00
2018-01-15T12:06:57.578Z,1780.00
2018-01-15T12:07:57.507Z,1788.00
2018-01-15T12:09:58.174Z,1820.00
2018-01-15T12:10:57.555Z,1780.00
2018-01-15T12:11:57.621Z,1772.00
2018-01-15T12:12:57.566Z,1756.00
2018-01-15T12:13:57.580Z,1748.00
2018-01-15T12:14:57.601Z,1716.00
2018-01-15T12:15:57.613Z,1660.00
2018-01-15T12:16:57.619Z,1604.00
2018-01-15T12:17:57.630Z,1556.00
2018-01-15T12:18:57.666Z,1500.00
2018-01-15T12:19:57.656Z,1456.00
2018-01-15T12:20:57.673Z,1504.00
2018-01-15T12:21:57.684Z,1528.00
2018-01-15T12:22:57.699Z,1540.00
2018-01-15T12:23:57.707Z,1520.00
2018-01-15T12:24:57.721Z,1536.00
2018-01-15T12:25:57.735Z,1552.00
2018-01-15T12:26:57.747Z,1520.00
2018-01-15T12:27:57.759Z,1472.00
2018-01-15T12:28:57.775Z,1540.00
2018-01-15T12:29:57.788Z,1572.00
2018-01-15T12:30:57.799Z,1584.00
2018-01-15T12:31:57.818Z,1584.00
2018-01-15T12:32:57.827Z,1580.00
2018-01-15T12:33:57.840Z,1512.00
2018-01-15T12:34:57.854Z,1476.00
2018-01-15T12:35:57.867Z,1512.00
2018-01-15T12:36:57.879Z,1564.00
2018-01-15T12:37:58.292Z,1612.00
2018-01-15T12:38:57.917Z,1648.00
2018-01-15T12:39:57.923Z,1700.00
2018-01-15T12:40:58.834Z,1752.00
2018-01-15T12:41:57.945Z,1816.00
2018-01-15T12:42:57.960Z,1856.00
2018-01-15T12:43:57.971Z,1720.00
2018-01-15T12:44:57.986Z,1532.00
2018-01-15T12:45:57.997Z,1560.00
2018-01-15T12:46:58.167Z,1668.00
2018-01-15T12:47:58.026Z,1768.00
2018-01-15T12:48:58.038Z,1852.00
2018-01-15T12:49:58.050Z,1872.00
2018-01-15T12:50:58.266Z,1676.00
2018-01-15T12:51:58.077Z,1424.00
2018-01-15T12:52:58.090Z,1224.00
2018-01-15T12:53:58.104Z,1120.00
2018-01-15T12:54:58.131Z,1072.00
2018-01-15T12:55:58.129Z,976.00